Aérodrome :
LOGIN :

S'inscrire | Disclaimer

   EN    FR    IT 

 










Légende :    VFR   VFR Marginal   IFR   IFR Intensif   IFR Très Intensif
Visi : 
Plafond : 
>= 8 km
>= 3000ft
5 à 8 km
1000 à 3000 ft
1500m à 5 km
500 à 1000 ft
800 à 1500m
200 à 500 ft
< 800m
< 200 ft
Symboles :   Orages  Brouillard  Fortes neiges  Fortes précipitations  Vent > 20 kt
SIGMETs :   Divers  Orages  Givrage  Turbulence  Onde Orograph.  Cendres Volcan.






- Altitude de l'aérodrome : 989 ft
- Code IATA : TRN


LIMF - Torino Caselle

DERNIER METAR :
  • 190150Z VRB02KT 7000 VCTS BKN010 FEW020CB 18/17 Q1011

METARs EXPIRÉS :
  • 190120Z 32003KT 280V340 7000 VCTS BKN015 FEW020CB 18/17 Q1011
  • 190050Z VRB02KT 7000 VCTS BKN010 FEW020CB 18/17 Q1012 RETSRA
  • 190020Z 33004KT 9999 -TSRA SCT020CB BKN100 18/17 Q1012
  • 182350Z VRB02KT 9999 TS SCT020CB BKN100 18/17 Q1012 RESHRA
  • 182320Z 10003KT 070V150 9000 4000E TSRA FEW025CB BKN060 18/17 Q1012
  • 182250Z 14005KT 090V180 8000 -TSRA SCT025CB BKN070 18/17 Q1012 RESHRA

TAF TAF LIMF
Valide du 19 à 00h jusqu'au 20 à 00h UTC


182300Z 1900/1924 VRB05KT 9999 SCT030
TEMPO 1901/1915 TSRA



MET'MAP, la Météo Aéronautique d'un coup d'oeil ! - Copyright ORBIFLY Décembre 2007 - Disclaimer

ORBIFLY MET'MAP TEAM :

Programmation & Développement : Alexandra Zaïnal
Sur une idée originale de : Baudouin d'Aumeries
Assistance à la programmation : Marc-Olivier Méhu
Soutien technique & logistique : Manuel Goepfert

Contact : metmap@orbifly.com




SOURCES & CREDITS :

   NOAA